Twin City, GA (30471)

2:26 PM EDT on April 25, 2015 (GMT -0400)
Hope Street | | Change Station
CLOSE
Current Station
Personal Weather Station
Location: Metter, GA
Elevation: 211 ft
Nearby Weather Stations

Elev 211 ft 32.41 °N, 82.07 °W | Updated 21 seconds ago

Overcast
Overcast
74.3 °F
Feels Like 74 °F
N
4.6
Wind Variable Wind from NNW
Gusts 4.6 mph

Today
High -- | Low -- °F
--% Chance of Precip.
Yesterday
High -- | Low -- °F
Precip. -- in
6:48 AM 8:05 PM
Waxing Crescent, 48% visible
Pressure 29.76 in
Visibility 10.0 miles
Clouds Scattered Clouds 1300 ft
Mostly Cloudy 2700 ft
Overcast 3300 ft
Heat Index 74 °F
Dew Point 68 °F
Humidity 82%
Rainfall 2.65 in
Snow Depth Not available.
UV 4 out of 12
Pollen 8.10 out of 12
Air Quality Not available.
Flu Activity Sporadic
METAR KJYL 251815Z AUTO 20007KT 10SM SCT013 BKN027 OVC033 23/20 A2976 RMK AO2 T02280204

More Conditions Fewer Conditions

Pressure 29.76 in
Visibility 10.0 miles
Clouds Scattered Clouds 1300 ft
Mostly Cloudy 2700 ft
Overcast 3300 ft
Heat Index 74 °F
Dew Point 68 °F
Humidity 82%
Rainfall 2.65 in
Snow Depth Not available.
UV 4 out of 12
Pollen 8.10 out of 12
Air Quality Not available.
Flu Activity Sporadic
METAR KJYL 251815Z AUTO 20007KT 10SM SCT013 BKN027 OVC033 23/20 A2976 RMK AO2 T02280204

More Conditions Fewer Conditions

10-Day Weather Forecast

Almanac

Astronomy

Apr. 25, 2015 Rise Set
Actual Time
Civil Twilight
Nautical Twilight
Astronomical Twilight
Moon
Length of Visible Light
Length of Day
Tomorrow will be .
, % of the Moon is Illuminated

Today's Extremes

State Highs State Lows

Community

WunderPhotos

Upload Photos

1,816,765 photos uploaded!

WunderBlogs® & News

Nearby

Air Quality

  Air Quality AQ Index Pollutant
Not available.

Snow Depth

Station Depth Elevation

Earthquake Activity

City Distance Mag. Time & Date
Minimum magnitude displayed is 2.5.

Coastal Water Temperatures

Place Temperature

Stations

Nearby Weather Stations

Station Location Temp. Windchill Dew Point Humidity Wind Precip. Elev Updated Type